sensor_id;sensor_type;location;lat;lon;timestamp;temperature;humidity
33368;DHT22;19724;51.114;13.906;2022-11-25T00:02:15;3.90;99.90
33368;DHT22;19724;51.114;13.906;2022-11-25T00:04:41;3.90;99.90
33368;DHT22;19724;51.114;13.906;2022-11-25T00:07:06;3.80;99.90
33368;DHT22;19724;51.114;13.906;2022-11-25T00:09:32;3.80;99.90
33368;DHT22;19724;51.114;13.906;2022-11-25T00:11:57;3.80;99.90
33368;DHT22;19724;51.114;13.906;2022-11-25T00:14:22;3.80;99.90
33368;DHT22;19724;51.114;13.906;2022-11-25T00:16:48;3.80;99.90
33368;DHT22;19724;51.114;13.906;2022-11-25T00:19:13;3.80;99.90
33368;DHT22;19724;51.114;13.906;2022-11-25T00:21:39;3.80;99.90
33368;DHT22;19724;51.114;13.906;2022-11-25T00:24:05;3.80;99.90
33368;DHT22;19724;51.114;13.906;2022-11-25T00:26:32;3.80;99.90
33368;DHT22;19724;51.114;13.906;2022-11-25T00:29:00;3.90;99.90
33368;DHT22;19724;51.114;13.906;2022-11-25T00:31:31;3.90;99.90
33368;DHT22;19724;51.114;13.906;2022-11-25T00:33:58;3.80;99.90
33368;DHT22;19724;51.114;13.906;2022-11-25T00:36:32;3.80;99.90
33368;DHT22;19724;51.114;13.906;2022-11-25T00:39:00;3.90;99.90
33368;DHT22;19724;51.114;13.906;2022-11-25T00:41:27;3.90;99.90
33368;DHT22;19724;51.114;13.906;2022-11-25T00:44:14;3.90;99.90
33368;DHT22;19724;51.114;13.906;2022-11-25T00:46:59;4.00;99.90
33368;DHT22;19724;51.114;13.906;2022-11-25T00:49:24;4.00;99.90
33368;DHT22;19724;51.114;13.906;2022-11-25T00:51:50;4.00;99.90
33368;DHT22;19724;51.114;13.906;2022-11-25T00:54:16;4.00;99.90
33368;DHT22;19724;51.114;13.906;2022-11-25T00:56:41;4.00;99.90
33368;DHT22;19724;51.114;13.906;2022-11-25T00:59:07;4.00;99.90
33368;DHT22;19724;51.114;13.906;2022-11-25T01:01:34;4.00;99.90
33368;DHT22;19724;51.114;13.906;2022-11-25T01:03:59;4.00;99.90
33368;DHT22;19724;51.114;13.906;2022-11-25T01:06:25;4.00;99.90
33368;DHT22;19724;51.114;13.906;2022-11-25T01:08:51;4.00;99.90
33368;DHT22;19724;51.114;13.906;2022-11-25T01:11:19;4.00;99.90
33368;DHT22;19724;51.114;13.906;2022-11-25T01:13:45;4.00;99.90
33368;DHT22;19724;51.114;13.906;2022-11-25T01:16:13;4.00;99.90
33368;DHT22;19724;51.114;13.906;2022-11-25T01:18:40;4.00;99.90
33368;DHT22;19724;51.114;13.906;2022-11-25T01:21:12;4.00;99.90
33368;DHT22;19724;51.114;13.906;2022-11-25T01:23:39;4.00;99.90
33368;DHT22;19724;51.114;13.906;2022-11-25T01:26:07;3.90;99.90
33368;DHT22;19724;51.114;13.906;2022-11-25T01:28:34;3.90;99.90
33368;DHT22;19724;51.114;13.906;2022-11-25T01:31:05;4.00;99.90
33368;DHT22;19724;51.114;13.906;2022-11-25T01:33:31;3.90;99.90
33368;DHT22;19724;51.114;13.906;2022-11-25T01:36:17;3.80;99.90
33368;DHT22;19724;51.114;13.906;2022-11-25T01:38:43;3.80;99.90
33368;DHT22;19724;51.114;13.906;2022-11-25T01:41:11;3.80;99.90
33368;DHT22;19724;51.114;13.906;2022-11-25T01:43:38;3.80;99.90
33368;DHT22;19724;51.114;13.906;2022-11-25T01:46:11;3.70;99.90
33368;DHT22;19724;51.114;13.906;2022-11-25T01:49:01;3.50;99.90
33368;DHT22;19724;51.114;13.906;2022-11-25T01:51:40;3.60;99.90
33368;DHT22;19724;51.114;13.906;2022-11-25T01:54:08;3.50;99.90
33368;DHT22;19724;51.114;13.906;2022-11-25T01:56:41;3.50;99.90
33368;DHT22;19724;51.114;13.906;2022-11-25T01:59:09;3.50;99.90
33368;DHT22;19724;51.114;13.906;2022-11-25T02:01:34;3.50;99.90
33368;DHT22;19724;51.114;13.906;2022-11-25T02:04:00;3.40;99.90
33368;DHT22;19724;51.114;13.906;2022-11-25T02:06:29;3.50;99.90
33368;DHT22;19724;51.114;13.906;2022-11-25T02:09:02;3.30;99.90
33368;DHT22;19724;51.114;13.906;2022-11-25T02:11:30;3.30;99.90
33368;DHT22;19724;51.114;13.906;2022-11-25T02:13:57;3.20;99.90
33368;DHT22;19724;51.114;13.906;2022-11-25T02:16:24;3.20;99.90
33368;DHT22;19724;51.114;13.906;2022-11-25T02:18:49;3.20;99.90
33368;DHT22;19724;51.114;13.906;2022-11-25T02:21:24;3.10;99.90
33368;DHT22;19724;51.114;13.906;2022-11-25T02:24:12;3.10;99.90
33368;DHT22;19724;51.114;13.906;2022-11-25T02:26:42;3.00;99.90
33368;DHT22;19724;51.114;13.906;2022-11-25T02:29:08;3.00;99.90
33368;DHT22;19724;51.114;13.906;2022-11-25T02:31:34;3.00;99.90
33368;DHT22;19724;51.114;13.906;2022-11-25T02:33:59;2.90;99.90
33368;DHT22;19724;51.114;13.906;2022-11-25T02:36:25;2.90;99.90
33368;DHT22;19724;51.114;13.906;2022-11-25T02:38:58;2.90;99.90
33368;DHT22;19724;51.114;13.906;2022-11-25T02:41:38;2.90;99.90
33368;DHT22;19724;51.114;13.906;2022-11-25T02:44:04;2.90;99.90
33368;DHT22;19724;51.114;13.906;2022-11-25T02:46:30;2.80;99.90
33368;DHT22;19724;51.114;13.906;2022-11-25T02:48:57;2.90;99.90
33368;DHT22;19724;51.114;13.906;2022-11-25T02:51:26;2.90;99.90
33368;DHT22;19724;51.114;13.906;2022-11-25T02:53:53;2.90;99.90
33368;DHT22;19724;51.114;13.906;2022-11-25T02:56:21;2.90;99.90
33368;DHT22;19724;51.114;13.906;2022-11-25T02:58:46;2.90;99.90
33368;DHT22;19724;51.114;13.906;2022-11-25T03:01:12;2.80;99.90
33368;DHT22;19724;51.114;13.906;2022-11-25T03:03:38;2.80;99.90
33368;DHT22;19724;51.114;13.906;2022-11-25T03:06:03;2.80;99.90
33368;DHT22;19724;51.114;13.906;2022-11-25T03:08:29;2.80;99.90
33368;DHT22;19724;51.114;13.906;2022-11-25T03:10:54;2.80;99.90
33368;DHT22;19724;51.114;13.906;2022-11-25T03:13:20;2.80;99.90
33368;DHT22;19724;51.114;13.906;2022-11-25T03:15:46;2.90;99.90
33368;DHT22;19724;51.114;13.906;2022-11-25T03:18:12;2.90;99.90
33368;DHT22;19724;51.114;13.906;2022-11-25T03:20:38;2.90;99.90
33368;DHT22;19724;51.114;13.906;2022-11-25T03:23:04;2.90;99.90
33368;DHT22;19724;51.114;13.906;2022-11-25T03:25:30;2.90;99.90
33368;DHT22;19724;51.114;13.906;2022-11-25T03:27:56;3.00;99.90
33368;DHT22;19724;51.114;13.906;2022-11-25T03:30:24;3.00;99.90
33368;DHT22;19724;51.114;13.906;2022-11-25T03:32:51;3.00;99.90
33368;DHT22;19724;51.114;13.906;2022-11-25T03:35:17;3.00;99.90
33368;DHT22;19724;51.114;13.906;2022-11-25T03:37:43;3.00;99.90
33368;DHT22;19724;51.114;13.906;2022-11-25T03:40:10;3.00;99.90
33368;DHT22;19724;51.114;13.906;2022-11-25T03:42:36;3.00;99.90
33368;DHT22;19724;51.114;13.906;2022-11-25T03:45:03;3.00;99.90
33368;DHT22;19724;51.114;13.906;2022-11-25T03:47:28;3.00;99.90
33368;DHT22;19724;51.114;13.906;2022-11-25T03:49:54;3.10;99.90
33368;DHT22;19724;51.114;13.906;2022-11-25T03:52:20;3.10;99.90
33368;DHT22;19724;51.114;13.906;2022-11-25T03:54:45;3.10;99.90
33368;DHT22;19724;51.114;13.906;2022-11-25T03:57:11;3.10;99.90
33368;DHT22;19724;51.114;13.906;2022-11-25T03:59:37;3.10;99.90
33368;DHT22;19724;51.114;13.906;2022-11-25T04:02:02;3.10;99.90
33368;DHT22;19724;51.114;13.906;2022-11-25T04:04:28;3.10;99.90
33368;DHT22;19724;51.114;13.906;2022-11-25T04:06:54;3.10;99.90
33368;DHT22;19724;51.114;13.906;2022-11-25T04:09:19;3.10;99.90
33368;DHT22;19724;51.114;13.906;2022-11-25T04:11:45;3.10;99.90
33368;DHT22;19724;51.114;13.906;2022-11-25T04:14:29;3.10;99.90
33368;DHT22;19724;51.114;13.906;2022-11-25T04:16:55;3.10;99.90
33368;DHT22;19724;51.114;13.906;2022-11-25T04:19:21;3.10;99.90
33368;DHT22;19724;51.114;13.906;2022-11-25T04:21:46;3.10;99.90
33368;DHT22;19724;51.114;13.906;2022-11-25T04:24:12;3.20;99.90
33368;DHT22;19724;51.114;13.906;2022-11-25T04:26:38;3.20;99.90
33368;DHT22;19724;51.114;13.906;2022-11-25T04:29:03;3.20;99.90
33368;DHT22;19724;51.114;13.906;2022-11-25T04:31:29;3.20;99.90
33368;DHT22;19724;51.114;13.906;2022-11-25T04:33:54;3.20;99.90
33368;DHT22;19724;51.114;13.906;2022-11-25T04:36:20;3.20;99.90
33368;DHT22;19724;51.114;13.906;2022-11-25T04:38:46;3.20;99.90
33368;DHT22;19724;51.114;13.906;2022-11-25T04:41:11;3.30;99.90
33368;DHT22;19724;51.114;13.906;2022-11-25T04:43:37;3.30;99.90
33368;DHT22;19724;51.114;13.906;2022-11-25T04:46:03;3.30;99.90
33368;DHT22;19724;51.114;13.906;2022-11-25T04:48:29;3.30;99.90
33368;DHT22;19724;51.114;13.906;2022-11-25T04:50:54;3.20;99.90
33368;DHT22;19724;51.114;13.906;2022-11-25T04:53:20;3.30;99.90
33368;DHT22;19724;51.114;13.906;2022-11-25T04:55:46;3.40;99.90
33368;DHT22;19724;51.114;13.906;2022-11-25T04:58:11;3.40;99.90
33368;DHT22;19724;51.114;13.906;2022-11-25T05:00:37;3.40;99.90
33368;DHT22;19724;51.114;13.906;2022-11-25T05:03:03;3.40;99.90
33368;DHT22;19724;51.114;13.906;2022-11-25T05:05:29;3.40;99.90
33368;DHT22;19724;51.114;13.906;2022-11-25T05:07:55;3.50;99.90
33368;DHT22;19724;51.114;13.906;2022-11-25T05:10:21;3.50;99.90
33368;DHT22;19724;51.114;13.906;2022-11-25T05:12:46;3.50;99.90
33368;DHT22;19724;51.114;13.906;2022-11-25T05:15:12;3.50;99.90
33368;DHT22;19724;51.114;13.906;2022-11-25T05:17:38;3.50;99.90
33368;DHT22;19724;51.114;13.906;2022-11-25T05:20:05;3.60;99.90
33368;DHT22;19724;51.114;13.906;2022-11-25T05:22:32;3.60;99.90
33368;DHT22;19724;51.114;13.906;2022-11-25T05:24:58;3.60;99.90
33368;DHT22;19724;51.114;13.906;2022-11-25T05:27:24;3.60;99.90
33368;DHT22;19724;51.114;13.906;2022-11-25T05:29:50;3.60;99.90
33368;DHT22;19724;51.114;13.906;2022-11-25T05:32:16;3.60;99.90
33368;DHT22;19724;51.114;13.906;2022-11-25T05:34:42;3.70;99.90
33368;DHT22;19724;51.114;13.906;2022-11-25T05:37:10;3.70;99.90
33368;DHT22;19724;51.114;13.906;2022-11-25T05:39:36;3.70;99.90
33368;DHT22;19724;51.114;13.906;2022-11-25T05:42:02;3.70;99.90
33368;DHT22;19724;51.114;13.906;2022-11-25T05:44:28;3.70;99.90
33368;DHT22;19724;51.114;13.906;2022-11-25T05:46:53;3.70;99.90
33368;DHT22;19724;51.114;13.906;2022-11-25T05:49:19;3.60;99.90
33368;DHT22;19724;51.114;13.906;2022-11-25T05:51:45;3.60;99.90
33368;DHT22;19724;51.114;13.906;2022-11-25T05:54:11;3.60;99.90
33368;DHT22;19724;51.114;13.906;2022-11-25T05:56:37;3.60;99.90
33368;DHT22;19724;51.114;13.906;2022-11-25T05:59:03;3.50;99.90
33368;DHT22;19724;51.114;13.906;2022-11-25T06:01:29;3.50;99.90
33368;DHT22;19724;51.114;13.906;2022-11-25T06:03:59;3.40;99.90
33368;DHT22;19724;51.114;13.906;2022-11-25T06:06:25;3.40;99.90
33368;DHT22;19724;51.114;13.906;2022-11-25T06:08:51;3.40;99.90
33368;DHT22;19724;51.114;13.906;2022-11-25T06:11:16;3.20;99.90
33368;DHT22;19724;51.114;13.906;2022-11-25T06:13:42;3.20;99.90
33368;DHT22;19724;51.114;13.906;2022-11-25T06:16:16;3.20;99.90
33368;DHT22;19724;51.114;13.906;2022-11-25T06:18:42;3.10;99.90
33368;DHT22;19724;51.114;13.906;2022-11-25T06:21:08;3.00;99.90
33368;DHT22;19724;51.114;13.906;2022-11-25T06:23:35;2.90;99.90
33368;DHT22;19724;51.114;13.906;2022-11-25T06:26:03;2.90;99.90
33368;DHT22;19724;51.114;13.906;2022-11-25T06:28:29;2.90;99.90
33368;DHT22;19724;51.114;13.906;2022-11-25T06:30:54;2.90;99.90
33368;DHT22;19724;51.114;13.906;2022-11-25T06:33:20;2.80;99.90
33368;DHT22;19724;51.114;13.906;2022-11-25T06:35:45;2.70;99.90
33368;DHT22;19724;51.114;13.906;2022-11-25T06:38:11;2.70;99.90
33368;DHT22;19724;51.114;13.906;2022-11-25T06:40:36;2.70;99.90
33368;DHT22;19724;51.114;13.906;2022-11-25T06:43:03;2.60;99.90
33368;DHT22;19724;51.114;13.906;2022-11-25T06:45:29;2.60;99.90
33368;DHT22;19724;51.114;13.906;2022-11-25T06:47:54;2.50;99.90
33368;DHT22;19724;51.114;13.906;2022-11-25T06:50:21;2.40;99.90
33368;DHT22;19724;51.114;13.906;2022-11-25T06:52:46;2.30;99.90
33368;DHT22;19724;51.114;13.906;2022-11-25T06:55:12;2.30;99.90
33368;DHT22;19724;51.114;13.906;2022-11-25T06:57:37;2.40;99.90
33368;DHT22;19724;51.114;13.906;2022-11-25T07:00:03;2.30;99.90
33368;DHT22;19724;51.114;13.906;2022-11-25T07:02:29;2.20;99.90
33368;DHT22;19724;51.114;13.906;2022-11-25T07:04:54;2.20;99.90
33368;DHT22;19724;51.114;13.906;2022-11-25T07:07:20;2.20;99.90
33368;DHT22;19724;51.114;13.906;2022-11-25T07:09:45;2.20;99.90
33368;DHT22;19724;51.114;13.906;2022-11-25T07:12:12;2.20;99.90
33368;DHT22;19724;51.114;13.906;2022-11-25T07:14:37;2.10;99.90
33368;DHT22;19724;51.114;13.906;2022-11-25T07:17:03;2.10;99.90
33368;DHT22;19724;51.114;13.906;2022-11-25T07:19:28;2.10;99.90
33368;DHT22;19724;51.114;13.906;2022-11-25T07:21:57;2.10;99.90
33368;DHT22;19724;51.114;13.906;2022-11-25T07:24:23;2.10;99.90
33368;DHT22;19724;51.114;13.906;2022-11-25T07:26:48;2.10;99.90
33368;DHT22;19724;51.114;13.906;2022-11-25T07:29:15;2.10;99.90
33368;DHT22;19724;51.114;13.906;2022-11-25T07:31:43;2.10;99.90
33368;DHT22;19724;51.114;13.906;2022-11-25T07:34:14;2.10;99.90
33368;DHT22;19724;51.114;13.906;2022-11-25T07:36:42;2.10;99.90
33368;DHT22;19724;51.114;13.906;2022-11-25T07:39:11;2.20;99.90
33368;DHT22;19724;51.114;13.906;2022-11-25T07:41:37;2.20;99.90
33368;DHT22;19724;51.114;13.906;2022-11-25T07:44:04;2.30;99.90
33368;DHT22;19724;51.114;13.906;2022-11-25T07:46:37;2.30;99.90
33368;DHT22;19724;51.114;13.906;2022-11-25T07:49:06;2.30;99.90
33368;DHT22;19724;51.114;13.906;2022-11-25T07:51:37;2.40;99.90
33368;DHT22;19724;51.114;13.906;2022-11-25T07:54:06;2.40;99.90
33368;DHT22;19724;51.114;13.906;2022-11-25T07:56:34;2.40;99.90
33368;DHT22;19724;51.114;13.906;2022-11-25T07:59:00;2.50;99.90
33368;DHT22;19724;51.114;13.906;2022-11-25T08:01:25;2.60;99.90
33368;DHT22;19724;51.114;13.906;2022-11-25T08:03:52;2.60;99.90
33368;DHT22;19724;51.114;13.906;2022-11-25T08:06:23;2.70;99.90
33368;DHT22;19724;51.114;13.906;2022-11-25T08:08:50;2.80;99.90
33368;DHT22;19724;51.114;13.906;2022-11-25T08:11:21;2.80;99.90
33368;DHT22;19724;51.114;13.906;2022-11-25T08:13:47;2.90;99.90
33368;DHT22;19724;51.114;13.906;2022-11-25T08:16:17;3.00;99.90
33368;DHT22;19724;51.114;13.906;2022-11-25T08:18:43;3.10;99.90
33368;DHT22;19724;51.114;13.906;2022-11-25T08:21:12;3.20;99.90
33368;DHT22;19724;51.114;13.906;2022-11-25T08:23:39;3.30;99.90
33368;DHT22;19724;51.114;13.906;2022-11-25T08:26:07;3.50;99.90
33368;DHT22;19724;51.114;13.906;2022-11-25T08:28:34;3.60;99.90
33368;DHT22;19724;51.114;13.906;2022-11-25T08:33:32;4.20;99.90
33368;DHT22;19724;51.114;13.906;2022-11-25T08:35:58;4.60;99.90
33368;DHT22;19724;51.114;13.906;2022-11-25T08:38:23;5.10;99.90
33368;DHT22;19724;51.114;13.906;2022-11-25T08:40:49;5.60;99.90
33368;DHT22;19724;51.114;13.906;2022-11-25T08:43:15;6.00;99.90
33368;DHT22;19724;51.114;13.906;2022-11-25T08:45:41;6.30;99.90
33368;DHT22;19724;51.114;13.906;2022-11-25T08:48:07;6.50;99.90
33368;DHT22;19724;51.114;13.906;2022-11-25T08:50:33;6.90;99.90
33368;DHT22;19724;51.114;13.906;2022-11-25T08:52:58;7.40;99.90
33368;DHT22;19724;51.114;13.906;2022-11-25T08:55:25;8.00;99.90
33368;DHT22;19724;51.114;13.906;2022-11-25T08:57:52;8.50;99.90
33368;DHT22;19724;51.114;13.906;2022-11-25T09:00:18;8.90;99.90
33368;DHT22;19724;51.114;13.906;2022-11-25T09:02:44;9.20;99.90
33368;DHT22;19724;51.114;13.906;2022-11-25T09:05:13;9.50;99.90
33368;DHT22;19724;51.114;13.906;2022-11-25T09:07:39;9.80;99.90
33368;DHT22;19724;51.114;13.906;2022-11-25T09:10:08;10.10;99.90
33368;DHT22;19724;51.114;13.906;2022-11-25T09:12:33;10.30;99.90
33368;DHT22;19724;51.114;13.906;2022-11-25T09:14:59;10.40;99.90
33368;DHT22;19724;51.114;13.906;2022-11-25T09:17:25;10.60;99.90
33368;DHT22;19724;51.114;13.906;2022-11-25T09:19:51;10.70;99.90
33368;DHT22;19724;51.114;13.906;2022-11-25T09:22:17;10.90;99.90
33368;DHT22;19724;51.114;13.906;2022-11-25T09:24:42;11.00;99.90
33368;DHT22;19724;51.114;13.906;2022-11-25T09:27:09;11.20;99.90
33368;DHT22;19724;51.114;13.906;2022-11-25T09:29:35;11.50;99.90
33368;DHT22;19724;51.114;13.906;2022-11-25T09:32:00;11.80;99.90
33368;DHT22;19724;51.114;13.906;2022-11-25T09:34:26;12.00;99.90
33368;DHT22;19724;51.114;13.906;2022-11-25T09:36:52;12.20;99.90
33368;DHT22;19724;51.114;13.906;2022-11-25T09:39:17;12.30;99.90
33368;DHT22;19724;51.114;13.906;2022-11-25T09:53:55;12.90;99.90
33368;DHT22;19724;51.114;13.906;2022-11-25T09:56:39;12.70;99.90
33368;DHT22;19724;51.114;13.906;2022-11-25T10:01:57;12.70;99.90
33368;DHT22;19724;51.114;13.906;2022-11-25T10:04:39;12.70;99.90
33368;DHT22;19724;51.114;13.906;2022-11-25T10:07:17;13.00;99.90
33368;DHT22;19724;51.114;13.906;2022-11-25T10:09:44;13.30;99.90
33368;DHT22;19724;51.114;13.906;2022-11-25T10:12:25;13.70;99.90
33368;DHT22;19724;51.114;13.906;2022-11-25T10:15:00;14.00;99.90
33368;DHT22;19724;51.114;13.906;2022-11-25T10:17:39;14.40;99.90
33368;DHT22;19724;51.114;13.906;2022-11-25T10:22:48;14.90;99.90
33368;DHT22;19724;51.114;13.906;2022-11-25T10:28:02;15.30;99.90
33368;DHT22;19724;51.114;13.906;2022-11-25T10:33:19;15.30;99.90
33368;DHT22;19724;51.114;13.906;2022-11-25T10:35:52;15.30;99.90
33368;DHT22;19724;51.114;13.906;2022-11-25T10:38:28;15.40;99.90
33368;DHT22;19724;51.114;13.906;2022-11-25T10:40:55;15.40;99.90
33368;DHT22;19724;51.114;13.906;2022-11-25T10:43:20;15.50;99.90
33368;DHT22;19724;51.114;13.906;2022-11-25T10:45:52;15.50;99.90
33368;DHT22;19724;51.114;13.906;2022-11-25T10:48:35;15.50;99.90
33368;DHT22;19724;51.114;13.906;2022-11-25T10:54:16;15.50;99.90
33368;DHT22;19724;51.114;13.906;2022-11-25T10:56:58;15.00;99.90
33368;DHT22;19724;51.114;13.906;2022-11-25T10:59:31;14.70;99.90
33368;DHT22;19724;51.114;13.906;2022-11-25T11:02:16;14.40;99.90
33368;DHT22;19724;51.114;13.906;2022-11-25T11:07:32;13.90;99.90
33368;DHT22;19724;51.114;13.906;2022-11-25T11:10:23;13.60;99.90
33368;DHT22;19724;51.114;13.906;2022-11-25T11:13:25;13.40;99.90
33368;DHT22;19724;51.114;13.906;2022-11-25T11:15:54;13.20;99.90
33368;DHT22;19724;51.114;13.906;2022-11-25T11:20:50;13.10;99.90
33368;DHT22;19724;51.114;13.906;2022-11-25T11:23:16;13.10;99.90
33368;DHT22;19724;51.114;13.906;2022-11-25T11:25:53;13.00;99.90
33368;DHT22;19724;51.114;13.906;2022-11-25T11:36:45;12.80;99.90
33368;DHT22;19724;51.114;13.906;2022-11-25T11:39:34;12.90;99.90
33368;DHT22;19724;51.114;13.906;2022-11-25T11:47:42;12.70;99.90
33368;DHT22;19724;51.114;13.906;2022-11-25T11:50:31;12.70;99.90
33368;DHT22;19724;51.114;13.906;2022-11-25T11:53:20;12.60;99.90
33368;DHT22;19724;51.114;13.906;2022-11-25T11:58:40;12.60;99.90
33368;DHT22;19724;51.114;13.906;2022-11-25T12:01:30;12.60;99.90
33368;DHT22;19724;51.114;13.906;2022-11-25T12:04:11;12.60;99.90
33368;DHT22;19724;51.114;13.906;2022-11-25T12:06:40;12.50;99.90
33368;DHT22;19724;51.114;13.906;2022-11-25T12:09:16;12.40;99.90
33368;DHT22;19724;51.114;13.906;2022-11-25T12:11:47;12.40;99.90
33368;DHT22;19724;51.114;13.906;2022-11-25T12:14:37;12.40;99.90
33368;DHT22;19724;51.114;13.906;2022-11-25T12:23:01;12.20;99.90
33368;DHT22;19724;51.114;13.906;2022-11-25T12:25:35;12.20;99.90
33368;DHT22;19724;51.114;13.906;2022-11-25T12:28:16;12.20;99.90
33368;DHT22;19724;51.114;13.906;2022-11-25T12:31:07;12.10;99.90
33368;DHT22;19724;51.114;13.906;2022-11-25T13:29:05;11.30;99.90
33368;DHT22;19724;51.114;13.906;2022-11-25T13:31:32;11.20;99.90
33368;DHT22;19724;51.114;13.906;2022-11-25T13:34:07;11.10;99.90
33368;DHT22;19724;51.114;13.906;2022-11-25T13:36:45;11.10;99.90
33368;DHT22;19724;51.114;13.906;2022-11-25T13:39:17;11.10;99.90
33368;DHT22;19724;51.114;13.906;2022-11-25T13:41:48;10.90;99.90
33368;DHT22;19724;51.114;13.906;2022-11-25T13:44:20;10.70;99.90
33368;DHT22;19724;51.114;13.906;2022-11-25T13:46:49;10.60;99.90
33368;DHT22;19724;51.114;13.906;2022-11-25T13:52:46;10.50;99.90
33368;DHT22;19724;51.114;13.906;2022-11-25T13:57:46;10.20;99.90
33368;DHT22;19724;51.114;13.906;2022-11-25T14:02:46;10.10;99.90
33368;DHT22;19724;51.114;13.906;2022-11-25T14:11:28;9.70;99.90
33368;DHT22;19724;51.114;13.906;2022-11-25T14:19:41;9.30;99.90
33368;DHT22;19724;51.114;13.906;2022-11-25T14:25:20;9.10;99.90
33368;DHT22;19724;51.114;13.906;2022-11-25T14:27:49;8.90;99.90
33368;DHT22;19724;51.114;13.906;2022-11-25T14:30:16;8.90;99.90
33368;DHT22;19724;51.114;13.906;2022-11-25T14:33:01;8.80;99.90
33368;DHT22;19724;51.114;13.906;2022-11-25T14:35:54;8.70;99.90
33368;DHT22;19724;51.114;13.906;2022-11-25T14:38:28;8.50;99.90
33368;DHT22;19724;51.114;13.906;2022-11-25T14:41:07;8.50;99.90
33368;DHT22;19724;51.114;13.906;2022-11-25T14:43:39;8.30;99.90
33368;DHT22;19724;51.114;13.906;2022-11-25T14:46:15;8.20;99.90
33368;DHT22;19724;51.114;13.906;2022-11-25T14:48:42;8.10;99.90
33368;DHT22;19724;51.114;13.906;2022-11-25T14:51:09;8.00;99.90
33368;DHT22;19724;51.114;13.906;2022-11-25T14:53:44;8.00;99.90
33368;DHT22;19724;51.114;13.906;2022-11-25T14:56:11;7.90;99.90
33368;DHT22;19724;51.114;13.906;2022-11-25T14:58:44;7.90;99.90
33368;DHT22;19724;51.114;13.906;2022-11-25T15:01:21;7.80;99.90
33368;DHT22;19724;51.114;13.906;2022-11-25T15:03:48;7.70;99.90
33368;DHT22;19724;51.114;13.906;2022-11-25T15:06:14;7.60;99.90
33368;DHT22;19724;51.114;13.906;2022-11-25T15:08:45;7.40;99.90
33368;DHT22;19724;51.114;13.906;2022-11-25T15:11:21;7.40;99.90
33368;DHT22;19724;51.114;13.906;2022-11-25T15:13:58;7.30;99.90
33368;DHT22;19724;51.114;13.906;2022-11-25T15:16:33;7.20;99.90
33368;DHT22;19724;51.114;13.906;2022-11-25T15:18:59;7.20;99.90
33368;DHT22;19724;51.114;13.906;2022-11-25T15:21:31;7.10;99.90
33368;DHT22;19724;51.114;13.906;2022-11-25T15:23:58;7.10;99.90
33368;DHT22;19724;51.114;13.906;2022-11-25T15:26:26;7.00;99.90
33368;DHT22;19724;51.114;13.906;2022-11-25T15:28:57;7.00;99.90
33368;DHT22;19724;51.114;13.906;2022-11-25T15:31:32;7.00;99.90
33368;DHT22;19724;51.114;13.906;2022-11-25T15:34:03;6.90;99.90
33368;DHT22;19724;51.114;13.906;2022-11-25T15:36:29;6.90;99.90
33368;DHT22;19724;51.114;13.906;2022-11-25T15:38:56;6.80;99.90
33368;DHT22;19724;51.114;13.906;2022-11-25T15:41:38;6.80;99.90
33368;DHT22;19724;51.114;13.906;2022-11-25T15:44:05;6.70;99.90
33368;DHT22;19724;51.114;13.906;2022-11-25T15:46:33;6.70;99.90
33368;DHT22;19724;51.114;13.906;2022-11-25T15:49:02;6.70;99.90
33368;DHT22;19724;51.114;13.906;2022-11-25T15:51:33;6.70;99.90
33368;DHT22;19724;51.114;13.906;2022-11-25T15:56:38;6.60;99.90
33368;DHT22;19724;51.114;13.906;2022-11-25T15:59:04;6.60;99.90
33368;DHT22;19724;51.114;13.906;2022-11-25T16:01:30;6.50;99.90
33368;DHT22;19724;51.114;13.906;2022-11-25T16:04:10;6.50;99.90
33368;DHT22;19724;51.114;13.906;2022-11-25T16:06:52;6.50;99.90
33368;DHT22;19724;51.114;13.906;2022-11-25T16:09:19;6.50;99.90
33368;DHT22;19724;51.114;13.906;2022-11-25T16:11:45;6.50;99.90
33368;DHT22;19724;51.114;13.906;2022-11-25T16:14:28;6.50;99.90
33368;DHT22;19724;51.114;13.906;2022-11-25T16:17:04;6.40;99.90
33368;DHT22;19724;51.114;13.906;2022-11-25T16:19:37;6.40;99.90
33368;DHT22;19724;51.114;13.906;2022-11-25T16:22:04;6.30;99.90
33368;DHT22;19724;51.114;13.906;2022-11-25T16:24:45;6.40;99.90
33368;DHT22;19724;51.114;13.906;2022-11-25T16:27:23;6.30;99.90
33368;DHT22;19724;51.114;13.906;2022-11-25T16:32:31;6.30;99.90
33368;DHT22;19724;51.114;13.906;2022-11-25T16:35:15;6.40;99.90
33368;DHT22;19724;51.114;13.906;2022-11-25T16:37:42;6.40;99.90
33368;DHT22;19724;51.114;13.906;2022-11-25T16:40:11;6.40;99.90
33368;DHT22;19724;51.114;13.906;2022-11-25T16:42:37;6.40;99.90
33368;DHT22;19724;51.114;13.906;2022-11-25T16:45:16;6.40;99.90
33368;DHT22;19724;51.114;13.906;2022-11-25T16:47:42;6.40;99.90
33368;DHT22;19724;51.114;13.906;2022-11-25T16:50:12;6.40;99.90
33368;DHT22;19724;51.114;13.906;2022-11-25T16:52:38;6.40;99.90
33368;DHT22;19724;51.114;13.906;2022-11-25T16:55:04;6.40;99.90
33368;DHT22;19724;51.114;13.906;2022-11-25T16:57:31;6.30;99.90
33368;DHT22;19724;51.114;13.906;2022-11-25T16:59:57;6.30;99.90
33368;DHT22;19724;51.114;13.906;2022-11-25T17:02:26;6.30;99.90
33368;DHT22;19724;51.114;13.906;2022-11-25T17:04:51;6.30;99.90
33368;DHT22;19724;51.114;13.906;2022-11-25T17:07:17;6.30;99.90
33368;DHT22;19724;51.114;13.906;2022-11-25T17:09:44;6.30;99.90
33368;DHT22;19724;51.114;13.906;2022-11-25T17:12:21;6.30;99.90
33368;DHT22;19724;51.114;13.906;2022-11-25T17:14:51;6.30;99.90
33368;DHT22;19724;51.114;13.906;2022-11-25T17:17:21;6.30;99.90
33368;DHT22;19724;51.114;13.906;2022-11-25T17:19:47;6.20;99.90
33368;DHT22;19724;51.114;13.906;2022-11-25T17:22:19;6.20;99.90
33368;DHT22;19724;51.114;13.906;2022-11-25T17:24:45;6.20;99.90
33368;DHT22;19724;51.114;13.906;2022-11-25T17:27:26;6.10;99.90
33368;DHT22;19724;51.114;13.906;2022-11-25T17:29:53;6.10;99.90
33368;DHT22;19724;51.114;13.906;2022-11-25T17:32:19;6.00;99.90
33368;DHT22;19724;51.114;13.906;2022-11-25T17:34:45;6.00;99.90
33368;DHT22;19724;51.114;13.906;2022-11-25T17:37:15;6.00;99.90
33368;DHT22;19724;51.114;13.906;2022-11-25T17:39:41;5.90;99.90
33368;DHT22;19724;51.114;13.906;2022-11-25T17:42:13;5.90;99.90
33368;DHT22;19724;51.114;13.906;2022-11-25T17:44:40;5.90;99.90
33368;DHT22;19724;51.114;13.906;2022-11-25T17:47:11;5.90;99.90
33368;DHT22;19724;51.114;13.906;2022-11-25T17:49:37;5.90;99.90
33368;DHT22;19724;51.114;13.906;2022-11-25T17:52:03;5.90;99.90
33368;DHT22;19724;51.114;13.906;2022-11-25T17:54:28;5.90;99.90
33368;DHT22;19724;51.114;13.906;2022-11-25T17:56:54;6.00;99.90
33368;DHT22;19724;51.114;13.906;2022-11-25T17:59:25;5.90;99.90
33368;DHT22;19724;51.114;13.906;2022-11-25T18:01:51;5.90;99.90